createdAt,value
2018-05-27T00:02:08.016Z,23.50
2018-05-27T00:04:35.638Z,23.50
2018-05-27T00:07:03.246Z,23.50
2018-05-27T00:09:30.862Z,23.50
2018-05-27T00:11:59.288Z,23.50
2018-05-27T00:14:26.911Z,23.40
2018-05-27T00:16:54.494Z,23.50
2018-05-27T00:19:22.110Z,23.40
2018-05-27T00:21:50.463Z,23.40
2018-05-27T00:24:18.083Z,23.40
2018-05-27T00:26:45.672Z,23.40
2018-05-27T00:29:13.299Z,23.50
2018-05-27T00:31:40.891Z,23.40
2018-05-27T00:34:08.507Z,23.40
2018-05-27T00:36:36.082Z,23.40
2018-05-27T00:39:03.794Z,23.40
2018-05-27T00:41:31.385Z,23.40
2018-05-27T00:43:59.014Z,23.40
2018-05-27T00:46:26.600Z,23.40
2018-05-27T00:48:54.227Z,23.40
2018-05-27T00:51:21.818Z,23.40
2018-05-27T00:53:59.273Z,23.40
2018-05-27T00:56:26.876Z,23.40
2018-05-27T00:58:54.495Z,23.40
2018-05-27T01:01:22.114Z,23.40
2018-05-27T01:03:50.462Z,23.40
2018-05-27T01:06:18.084Z,23.40
2018-05-27T01:08:45.673Z,23.40
2018-05-27T01:11:14.067Z,23.40
2018-05-27T01:13:41.652Z,23.40
2018-05-27T01:16:09.270Z,23.40
2018-05-27T01:18:36.855Z,23.40
2018-05-27T01:21:04.466Z,23.40
2018-05-27T01:23:32.052Z,23.40
2018-05-27T01:25:59.675Z,23.40
2018-05-27T01:28:27.264Z,23.40
2018-05-27T01:30:54.890Z,23.40
2018-05-27T01:33:22.478Z,23.40
2018-05-27T01:35:50.105Z,23.40
2018-05-27T01:38:17.692Z,23.40
2018-05-27T01:40:45.315Z,23.30
2018-05-27T01:43:13.667Z,23.30
2018-05-27T01:45:41.283Z,23.30
2018-05-27T01:48:08.875Z,23.30
2018-05-27T01:50:37.263Z,23.30
2018-05-27T01:53:04.856Z,23.30
2018-05-27T01:55:33.247Z,23.30
2018-05-27T01:58:00.863Z,23.30
2018-05-27T02:00:29.248Z,23.30
2018-05-27T02:02:56.840Z,23.30
2018-05-27T02:05:25.240Z,23.30
2018-05-27T02:07:53.611Z,23.30
2018-05-27T02:10:21.231Z,23.30
2018-05-27T02:12:49.586Z,23.30
2018-05-27T02:15:17.213Z,23.30
2018-05-27T02:17:44.800Z,23.30
2018-05-27T02:20:13.195Z,23.30
2018-05-27T02:22:40.787Z,23.30
2018-05-27T02:25:08.403Z,23.30
2018-05-27T02:27:36.023Z,23.30
2018-05-27T02:30:03.635Z,23.30
2018-05-27T02:32:31.260Z,23.30
2018-05-27T02:34:58.862Z,23.30
2018-05-27T02:37:26.487Z,23.30
2018-05-27T02:39:54.100Z,23.30
2018-05-27T02:42:21.727Z,23.30
2018-05-27T02:44:49.312Z,23.20
2018-05-27T02:47:16.932Z,23.20
2018-05-27T02:49:44.523Z,23.20
2018-05-27T02:52:12.917Z,23.20
2018-05-27T02:54:40.506Z,23.20
2018-05-27T02:57:08.118Z,23.20
2018-05-27T02:59:36.473Z,23.20
2018-05-27T03:02:04.103Z,23.20
2018-05-27T03:04:32.459Z,23.30
2018-05-27T03:07:00.084Z,23.20
2018-05-27T03:09:28.461Z,23.20
2018-05-27T03:11:56.079Z,23.20
2018-05-27T03:14:23.693Z,23.20
2018-05-27T03:16:51.319Z,23.20
2018-05-27T03:19:18.904Z,23.20
2018-05-27T03:21:46.518Z,23.20
2018-05-27T03:24:14.867Z,23.20
2018-05-27T03:26:42.484Z,23.20
2018-05-27T03:29:10.067Z,23.20
2018-05-27T03:31:37.691Z,23.20
2018-05-27T03:34:05.275Z,23.20
2018-05-27T03:36:32.885Z,23.20
2018-05-27T03:39:00.467Z,23.20
2018-05-27T03:41:28.089Z,23.20
2018-05-27T03:43:55.679Z,23.20
2018-05-27T03:46:24.076Z,23.20
2018-05-27T03:48:51.656Z,23.10
2018-05-27T03:51:19.275Z,23.20
2018-05-27T03:53:47.619Z,23.20
2018-05-27T03:56:15.203Z,23.10
2018-05-27T03:58:42.822Z,23.10
2018-05-27T04:01:11.292Z,23.10
2018-05-27T04:03:38.911Z,23.10
2018-05-27T04:06:18.312Z,23.10
2018-05-27T04:08:45.938Z,23.10
2018-05-27T04:11:13.522Z,23.10
2018-05-27T04:13:41.143Z,23.10
2018-05-27T04:16:09.494Z,23.10
2018-05-27T04:18:37.118Z,23.10
2018-05-27T04:21:04.702Z,23.10
2018-05-27T04:23:32.317Z,23.10
2018-05-27T04:26:00.658Z,23.10
2018-05-27T04:28:28.315Z,23.10
2018-05-27T04:30:56.681Z,23.10
2018-05-27T04:33:24.304Z,23.10
2018-05-27T04:35:51.877Z,23.10
2018-05-27T04:38:20.258Z,23.10
2018-05-27T04:40:47.843Z,23.00
2018-05-27T04:43:15.459Z,23.10
2018-05-27T04:45:43.039Z,23.10
2018-05-27T04:48:10.654Z,23.10
2018-05-27T04:50:38.238Z,23.10
2018-05-27T04:53:05.853Z,23.10
2018-05-27T04:55:33.435Z,23.10
2018-05-27T04:58:01.060Z,23.10
2018-05-27T05:00:29.592Z,23.00
2018-05-27T05:02:57.212Z,23.00
2018-05-27T05:05:25.030Z,23.10
2018-05-27T05:07:53.415Z,23.10
2018-05-27T05:10:21.267Z,23.00
2018-05-27T05:12:48.883Z,23.10
2018-05-27T05:15:16.666Z,23.10
2018-05-27T05:17:44.281Z,23.00
2018-05-27T05:20:12.053Z,23.00
2018-05-27T05:22:39.675Z,23.10
2018-05-27T05:25:08.018Z,23.10
2018-05-27T05:27:36.449Z,23.50
2018-05-27T05:30:04.042Z,23.00
2018-05-27T05:32:31.621Z,23.00
2018-05-27T05:34:59.243Z,23.00
2018-05-27T05:37:26.823Z,23.00
2018-05-27T05:39:54.486Z,23.00
2018-05-27T05:42:22.831Z,23.00
2018-05-27T05:44:50.449Z,23.00
2018-05-27T05:47:18.034Z,23.00
2018-05-27T05:49:45.655Z,23.00
2018-05-27T05:52:13.999Z,23.00
2018-05-27T05:54:41.616Z,23.00
2018-05-27T05:57:09.199Z,23.00
2018-05-27T05:59:36.815Z,23.00
2018-05-27T06:02:05.159Z,23.00
2018-05-27T06:04:32.771Z,23.00
2018-05-27T06:07:00.351Z,23.00
2018-05-27T06:09:27.966Z,23.00
2018-05-27T06:11:56.311Z,23.00
2018-05-27T06:14:23.931Z,23.00
2018-05-27T06:16:51.511Z,23.00
2018-05-27T06:19:19.128Z,23.10
2018-05-27T06:21:47.475Z,23.00
2018-05-27T06:24:15.087Z,23.00
2018-05-27T06:26:42.672Z,23.10
2018-05-27T06:29:10.293Z,23.10
2018-05-27T06:31:38.639Z,23.10
2018-05-27T06:34:06.254Z,23.00
2018-05-27T06:36:33.841Z,23.10
2018-05-27T06:39:01.457Z,23.10
2018-05-27T06:41:29.821Z,23.10
2018-05-27T06:43:57.452Z,23.10
2018-05-27T06:46:25.043Z,23.10
2018-05-27T06:48:52.655Z,23.10
2018-05-27T06:51:20.298Z,23.10
2018-05-27T06:53:47.876Z,23.10
2018-05-27T06:56:16.223Z,23.10
2018-05-27T06:58:43.838Z,23.10
2018-05-27T07:01:11.414Z,23.10
2018-05-27T07:03:38.991Z,23.10
2018-05-27T07:06:06.603Z,23.10
2018-05-27T07:08:34.188Z,23.10
2018-05-27T07:11:01.807Z,23.10
2018-05-27T07:13:29.388Z,23.10
2018-05-27T07:15:57.084Z,23.10
2018-05-27T07:18:24.663Z,23.10
2018-05-27T07:20:52.280Z,23.20
2018-05-27T07:23:19.859Z,23.10
2018-05-27T07:25:47.483Z,23.10
2018-05-27T07:28:15.104Z,23.10
2018-05-27T07:30:43.476Z,23.20
2018-05-27T07:33:11.059Z,23.10
2018-05-27T07:35:38.676Z,23.20
2018-05-27T07:38:06.255Z,23.10
2018-05-27T07:40:34.635Z,23.20
2018-05-27T07:43:02.219Z,23.10
2018-05-27T07:45:30.166Z,23.20
2018-05-27T07:47:57.746Z,23.20
2018-05-27T07:50:25.620Z,23.20
2018-05-27T07:52:53.308Z,23.20
2018-05-27T07:55:20.930Z,23.20
2018-05-27T07:57:48.511Z,23.20
2018-05-27T08:00:16.386Z,23.20
2018-05-27T08:02:43.973Z,23.20
2018-05-27T08:05:11.868Z,23.20
2018-05-27T08:07:39.452Z,23.20
2018-05-27T08:10:07.125Z,23.20
2018-05-27T08:12:34.709Z,23.20
2018-05-27T08:15:02.323Z,23.20
2018-05-27T08:17:29.906Z,23.20
2018-05-27T08:19:57.535Z,23.20
2018-05-27T08:22:25.903Z,23.20
2018-05-27T08:24:53.527Z,23.20
2018-05-27T08:27:22.179Z,23.20
2018-05-27T08:29:49.791Z,23.20
2018-05-27T08:32:17.371Z,23.20
2018-05-27T08:34:45.754Z,23.20
2018-05-27T08:37:13.341Z,23.20
2018-05-27T08:39:41.051Z,23.20
2018-05-27T08:42:08.700Z,23.20
2018-05-27T08:44:36.279Z,23.20
2018-05-27T08:47:03.891Z,23.20
2018-05-27T08:49:31.475Z,23.30
2018-05-27T08:51:59.089Z,23.20
2018-05-27T08:54:26.672Z,23.30
2018-05-27T08:56:54.311Z,23.30
2018-05-27T08:59:21.891Z,23.30
2018-05-27T09:01:49.506Z,23.30
2018-05-27T09:04:17.086Z,23.30
2018-05-27T09:06:44.711Z,23.30
2018-05-27T09:09:12.290Z,23.30
2018-05-27T09:11:39.903Z,23.30
2018-05-27T09:14:08.247Z,23.30
2018-05-27T09:16:35.891Z,23.30
2018-05-27T09:19:04.239Z,23.30
2018-05-27T09:21:31.862Z,23.30
2018-05-27T09:23:59.443Z,23.30
2018-05-27T09:26:27.071Z,23.30
2018-05-27T09:28:54.660Z,23.30
2018-05-27T09:31:22.291Z,23.30
2018-05-27T09:33:49.868Z,23.30
2018-05-27T09:36:17.483Z,23.30
2018-05-27T09:38:45.823Z,23.30
2018-05-27T09:41:13.447Z,23.30
2018-05-27T09:43:41.034Z,23.40
2018-05-27T09:46:08.647Z,23.30
2018-05-27T09:48:36.991Z,23.40
2018-05-27T09:51:04.674Z,23.30
2018-05-27T09:53:32.984Z,23.40
2018-05-27T09:56:00.595Z,23.40
2018-05-27T09:58:28.177Z,23.40
2018-05-27T10:00:55.804Z,23.40
2018-05-27T10:03:23.403Z,23.40
2018-05-27T10:05:52.077Z,23.40
2018-05-27T10:08:20.418Z,23.40
2018-05-27T10:10:48.000Z,23.40
2018-05-27T10:13:15.627Z,23.40
2018-05-27T10:15:43.208Z,23.40
2018-05-27T10:18:10.850Z,23.40
2018-05-27T10:20:38.436Z,23.40
2018-05-27T10:23:06.056Z,23.40
2018-05-27T10:25:33.648Z,23.40
2018-05-27T10:28:01.267Z,23.40
2018-05-27T10:30:29.843Z,23.40
2018-05-27T10:32:57.475Z,23.40
2018-05-27T10:35:25.391Z,23.40
2018-05-27T10:37:53.006Z,23.50
2018-05-27T10:40:20.587Z,23.50
2018-05-27T10:42:48.202Z,23.50
2018-05-27T10:45:16.996Z,23.50
2018-05-27T10:47:44.612Z,23.40
2018-05-27T10:50:13.174Z,23.50
2018-05-27T10:52:40.804Z,23.40
2018-05-27T10:55:09.150Z,23.50
2018-05-27T10:57:36.771Z,23.50
2018-05-27T11:00:04.355Z,23.50
2018-05-27T11:02:31.967Z,23.50
2018-05-27T11:05:00.311Z,23.50
2018-05-27T11:07:27.928Z,23.50
2018-05-27T11:09:55.542Z,23.50
2018-05-27T11:12:23.159Z,23.50
2018-05-27T11:14:50.739Z,23.50
2018-05-27T11:17:18.355Z,23.50
2018-05-27T11:19:45.944Z,23.50
2018-05-27T11:22:13.571Z,23.50
2018-05-27T11:24:41.151Z,23.50
2018-05-27T11:27:09.540Z,23.50
2018-05-27T11:29:37.883Z,23.50
2018-05-27T11:32:05.498Z,23.50
2018-05-27T11:34:33.071Z,23.50
2018-05-27T11:37:00.745Z,23.50
2018-05-27T11:39:29.060Z,23.50
2018-05-27T11:41:56.681Z,23.50
2018-05-27T11:44:25.029Z,23.60
2018-05-27T11:46:52.611Z,23.50
2018-05-27T11:49:20.223Z,23.60
2018-05-27T11:51:47.802Z,23.60
2018-05-27T11:54:15.447Z,23.60
2018-05-27T11:56:43.037Z,23.60
2018-05-27T11:59:10.684Z,23.60
2018-05-27T12:01:38.316Z,23.60
2018-05-27T12:04:06.691Z,23.60
2018-05-27T12:06:35.042Z,23.60
2018-05-27T12:09:02.846Z,23.60
2018-05-27T12:11:30.414Z,23.60
2018-05-27T12:13:58.037Z,23.60
2018-05-27T12:16:25.661Z,23.60
2018-05-27T12:18:53.270Z,23.70
2018-05-27T12:21:20.852Z,23.60
2018-05-27T12:23:48.469Z,23.60
2018-05-27T12:26:16.053Z,23.70
2018-05-27T12:28:43.667Z,23.70
2018-05-27T12:31:12.021Z,23.70
2018-05-27T12:33:39.635Z,23.70
2018-05-27T12:36:07.214Z,23.70
2018-05-27T12:38:34.839Z,23.70
2018-05-27T12:41:02.420Z,23.70
2018-05-27T12:43:30.038Z,23.70
2018-05-27T12:45:57.647Z,23.70
2018-05-27T12:48:25.288Z,23.70
2018-05-27T12:50:52.871Z,23.70
2018-05-27T12:53:20.483Z,23.70
2018-05-27T12:55:48.060Z,23.70
2018-05-27T12:58:15.680Z,23.70
2018-05-27T13:00:43.270Z,23.70
2018-05-27T13:03:10.883Z,23.80
2018-05-27T13:05:38.467Z,23.80
2018-05-27T13:08:06.842Z,23.80
2018-05-27T13:10:34.423Z,23.80
2018-05-27T13:13:02.043Z,23.80
2018-05-27T13:15:29.811Z,23.80
2018-05-27T13:17:58.215Z,23.80
2018-05-27T13:20:26.767Z,23.80
2018-05-27T13:22:54.363Z,23.80
2018-05-27T13:25:21.979Z,23.80
2018-05-27T13:27:49.558Z,23.80
2018-05-27T13:30:17.385Z,23.80
2018-05-27T13:32:45.727Z,23.80
2018-05-27T13:35:13.547Z,23.80
2018-05-27T13:37:41.129Z,23.90
2018-05-27T13:40:08.767Z,23.90
2018-05-27T13:42:36.347Z,23.90
2018-05-27T13:45:04.007Z,23.90
2018-05-27T13:47:31.571Z,23.90
2018-05-27T13:49:59.190Z,23.90
2018-05-27T13:52:27.543Z,23.90
2018-05-27T13:54:55.207Z,23.90
2018-05-27T13:57:22.787Z,23.90
2018-05-27T13:59:50.403Z,23.90
2018-05-27T14:02:17.983Z,23.90
2018-05-27T14:04:45.685Z,23.90
2018-05-27T14:07:13.247Z,23.90
2018-05-27T14:09:40.863Z,24.00
2018-05-27T14:12:08.451Z,24.00
2018-05-27T14:14:36.075Z,24.00
2018-05-27T14:17:03.655Z,24.00
2018-05-27T14:19:31.267Z,24.00
2018-05-27T14:21:59.232Z,24.00
2018-05-27T14:24:26.948Z,24.00
2018-05-27T14:26:54.530Z,24.00
2018-05-27T14:29:22.151Z,24.00
2018-05-27T14:31:49.731Z,24.00
2018-05-27T14:34:17.344Z,24.00
2018-05-27T14:36:45.692Z,24.10
2018-05-27T14:39:13.309Z,24.00
2018-05-27T14:41:40.898Z,24.10
2018-05-27T14:44:09.288Z,24.10
2018-05-27T14:46:36.867Z,24.10
2018-05-27T14:49:05.992Z,24.10
2018-05-27T14:51:33.574Z,24.00
2018-05-27T14:54:01.187Z,24.10
2018-05-27T14:56:29.544Z,24.10
2018-05-27T14:58:57.192Z,24.10
2018-05-27T15:01:24.770Z,24.10
2018-05-27T15:03:53.114Z,24.10
2018-05-27T15:06:20.727Z,24.10
2018-05-27T15:08:48.312Z,24.10
2018-05-27T15:11:15.922Z,24.10
2018-05-27T15:13:44.266Z,24.10
2018-05-27T15:16:12.406Z,24.10
2018-05-27T15:18:40.764Z,24.00
2018-05-27T15:21:08.389Z,24.10
2018-05-27T15:23:35.982Z,24.20
2018-05-27T15:26:03.603Z,24.20
2018-05-27T15:28:31.288Z,24.20
2018-05-27T15:30:58.911Z,24.20
2018-05-27T15:33:26.495Z,24.20
2018-05-27T15:35:54.111Z,24.20
2018-05-27T15:38:21.694Z,24.20
2018-05-27T15:40:49.308Z,24.20
2018-05-27T15:43:16.895Z,24.20
2018-05-27T15:45:44.515Z,24.20
2018-05-27T15:48:12.092Z,24.20
2018-05-27T15:50:39.722Z,24.20
2018-05-27T15:53:08.073Z,24.20
2018-05-27T15:55:35.688Z,24.20
2018-05-27T15:58:03.274Z,24.20
2018-05-27T16:00:31.132Z,24.20
2018-05-27T16:02:58.731Z,24.20
2018-05-27T16:05:26.768Z,24.20
2018-05-27T16:07:54.343Z,24.20
2018-05-27T16:10:21.957Z,24.20
2018-05-27T16:12:50.305Z,24.20
2018-05-27T16:15:18.284Z,24.20
2018-05-27T16:17:45.883Z,24.20
2018-05-27T16:20:13.759Z,24.20
2018-05-27T16:22:41.343Z,24.20
2018-05-27T16:25:08.963Z,24.20
2018-05-27T16:27:36.561Z,24.20
2018-05-27T16:30:04.431Z,24.20
2018-05-27T16:32:32.044Z,24.20
2018-05-27T16:35:00.426Z,24.20
2018-05-27T16:37:28.002Z,24.20
2018-05-27T16:39:55.616Z,24.20
2018-05-27T16:42:23.999Z,24.20
2018-05-27T16:44:51.582Z,24.20
2018-05-27T16:47:19.196Z,24.20
2018-05-27T16:49:47.538Z,24.20
2018-05-27T16:52:15.158Z,24.20
2018-05-27T16:54:42.744Z,24.30
2018-05-27T16:57:10.368Z,24.30
2018-05-27T16:59:37.955Z,24.30
2018-05-27T17:02:05.570Z,24.30
2018-05-27T17:04:33.155Z,24.30
2018-05-27T17:07:00.770Z,24.30
2018-05-27T17:09:28.354Z,24.20
2018-05-27T17:11:55.972Z,24.30
2018-05-27T17:14:23.555Z,24.30
2018-05-27T17:16:51.939Z,24.30
2018-05-27T17:19:19.522Z,24.20
2018-05-27T17:21:47.155Z,24.30
2018-05-27T17:24:14.738Z,24.30
2018-05-27T17:26:42.360Z,24.30
2018-05-27T17:29:09.940Z,24.30
2018-05-27T17:31:37.565Z,24.30
2018-05-27T17:34:05.916Z,24.30
2018-05-27T17:36:33.535Z,24.20
2018-05-27T17:39:01.115Z,24.30
2018-05-27T17:41:28.735Z,24.30
2018-05-27T17:43:56.316Z,24.30
2018-05-27T17:46:23.935Z,24.30
2018-05-27T17:48:51.515Z,24.30
2018-05-27T17:51:19.131Z,24.30
2018-05-27T17:56:16.640Z,24.30
2018-05-27T17:58:44.288Z,24.30
2018-05-27T18:01:11.907Z,24.30
2018-05-27T18:03:39.487Z,24.30
2018-05-27T18:06:07.105Z,24.30
2018-05-27T18:08:34.691Z,24.30
2018-05-27T18:11:02.311Z,24.30
2018-05-27T18:13:29.893Z,24.30
2018-05-27T18:15:57.511Z,24.30
2018-05-27T18:18:25.091Z,24.30
2018-05-27T18:20:52.760Z,24.30
2018-05-27T18:23:20.343Z,24.30
2018-05-27T18:25:47.959Z,24.30
2018-05-27T18:28:15.575Z,24.30
2018-05-27T18:30:43.163Z,24.30
2018-05-27T18:33:10.776Z,24.30
2018-05-27T18:35:38.363Z,24.30
2018-05-27T18:38:06.019Z,24.30
2018-05-27T18:40:33.594Z,24.30
2018-05-27T18:43:01.207Z,24.30
2018-05-27T18:45:29.810Z,24.30
2018-05-27T18:47:58.191Z,24.30
2018-05-27T18:50:26.042Z,24.30
2018-05-27T18:52:53.658Z,24.30
2018-05-27T18:55:21.247Z,24.30
2018-05-27T18:57:48.862Z,24.30
2018-05-27T19:00:17.508Z,24.30
2018-05-27T19:02:45.122Z,24.30
2018-05-27T19:05:12.930Z,24.30
2018-05-27T19:07:41.325Z,24.30
2018-05-27T19:10:08.924Z,24.30
2018-05-27T19:12:36.535Z,24.30
2018-05-27T19:15:04.283Z,24.30
2018-05-27T19:17:33.411Z,24.30
2018-05-27T19:20:01.001Z,24.20
2018-05-27T19:22:28.630Z,24.30
2018-05-27T19:24:56.211Z,24.30
2018-05-27T19:27:23.834Z,24.30
2018-05-27T19:29:51.431Z,24.30
2018-05-27T19:32:19.061Z,24.30
2018-05-27T19:34:46.663Z,24.30
2018-05-27T19:37:14.279Z,24.30
2018-05-27T19:39:41.868Z,24.30
2018-05-27T19:42:10.306Z,24.30
2018-05-27T19:44:38.651Z,24.30
2018-05-27T19:47:06.267Z,24.30
2018-05-27T19:49:33.856Z,24.30
2018-05-27T19:52:01.470Z,24.30
2018-05-27T19:54:29.819Z,24.30
2018-05-27T19:56:57.459Z,24.30
2018-05-27T19:59:25.079Z,24.30
2018-05-27T20:01:52.704Z,24.30
2018-05-27T20:04:21.068Z,24.30
2018-05-27T20:06:48.687Z,24.20
2018-05-27T20:09:17.783Z,24.20
2018-05-27T20:11:45.413Z,24.20
2018-05-27T20:14:13.770Z,24.30
2018-05-27T20:16:41.359Z,24.20
2018-05-27T20:19:08.980Z,24.30
2018-05-27T20:21:37.335Z,24.30
2018-05-27T20:24:05.004Z,24.30
2018-05-27T20:26:33.015Z,24.30
2018-05-27T20:29:00.683Z,24.30
2018-05-27T20:31:28.276Z,24.30
2018-05-27T20:33:55.903Z,24.30
2018-05-27T20:36:23.491Z,24.30
2018-05-27T20:38:51.116Z,24.30
2018-05-27T20:41:18.707Z,24.30
2018-05-27T20:43:46.334Z,24.30
2018-05-27T20:46:13.927Z,24.30
2018-05-27T20:48:41.547Z,24.30
2018-05-27T20:51:09.942Z,24.30
2018-05-27T20:53:37.559Z,24.20
2018-05-27T20:56:05.171Z,24.30
2018-05-27T20:58:32.796Z,24.30
2018-05-27T21:01:01.149Z,24.20
2018-05-27T21:03:28.771Z,24.20
2018-05-27T21:05:56.359Z,24.30
2018-05-27T21:08:24.751Z,24.20
2018-05-27T21:10:52.339Z,24.20
2018-05-27T21:13:19.964Z,24.30
2018-05-27T21:15:47.660Z,24.30
2018-05-27T21:18:15.293Z,24.20
2018-05-27T21:20:42.882Z,24.30
2018-05-27T21:23:10.528Z,24.20
2018-05-27T21:25:38.124Z,24.20
2018-05-27T21:28:05.747Z,24.20
2018-05-27T21:30:33.367Z,24.20
2018-05-27T21:33:00.993Z,24.20
2018-05-27T21:35:28.587Z,24.20
2018-05-27T21:37:56.214Z,24.20
2018-05-27T21:40:23.804Z,24.20
2018-05-27T21:42:51.425Z,24.20
2018-05-27T21:45:19.048Z,24.20
2018-05-27T21:47:47.434Z,24.20
2018-05-27T21:50:15.018Z,24.20
2018-05-27T21:52:42.662Z,24.20
2018-05-27T21:55:10.255Z,24.20
2018-05-27T21:57:37.836Z,24.20
2018-05-27T22:00:05.519Z,24.20
2018-05-27T22:02:33.112Z,24.20
2018-05-27T22:07:36.076Z,24.20
2018-05-27T22:10:03.699Z,24.20
2018-05-27T22:12:32.055Z,24.20
2018-05-27T22:14:59.684Z,24.20
2018-05-27T22:17:28.044Z,24.20
2018-05-27T22:19:55.671Z,24.20
2018-05-27T22:22:23.256Z,24.20
2018-05-27T22:24:51.652Z,24.20
2018-05-27T22:27:20.019Z,24.20
2018-05-27T22:29:47.651Z,24.20
2018-05-27T22:32:16.010Z,24.20
2018-05-27T22:34:43.631Z,24.20
2018-05-27T22:37:11.243Z,24.20
2018-05-27T22:39:39.638Z,24.20
2018-05-27T22:42:07.987Z,24.20
2018-05-27T22:44:35.617Z,24.20
2018-05-27T22:47:03.975Z,24.20
2018-05-27T22:49:31.595Z,24.20
2018-05-27T22:51:59.179Z,24.20
2018-05-27T22:54:26.799Z,24.20
2018-05-27T22:56:54.391Z,24.20
2018-05-27T22:59:22.014Z,24.20
2018-05-27T23:01:49.602Z,24.20
2018-05-27T23:04:17.227Z,24.20
2018-05-27T23:06:45.588Z,24.20
2018-05-27T23:09:13.215Z,24.20
2018-05-27T23:11:41.563Z,24.20
2018-05-27T23:14:09.190Z,24.20
2018-05-27T23:16:36.782Z,24.20
2018-05-27T23:19:05.168Z,24.20
2018-05-27T23:21:32.751Z,24.20
2018-05-27T23:24:00.367Z,24.20
2018-05-27T23:26:28.736Z,24.20
2018-05-27T23:28:56.359Z,24.10
2018-05-27T23:31:23.955Z,24.20
2018-05-27T23:33:51.579Z,24.20
2018-05-27T23:36:19.168Z,24.20
2018-05-27T23:38:46.831Z,24.20
2018-05-27T23:41:14.420Z,24.20
2018-05-27T23:43:42.035Z,24.20
2018-05-27T23:46:09.614Z,24.20
2018-05-27T23:48:37.231Z,24.10
2018-05-27T23:51:05.651Z,24.10
2018-05-27T23:53:33.339Z,24.10
2018-05-27T23:56:00.954Z,24.10
2018-05-27T23:58:28.562Z,24.10
